sensor_id;sensor_type;location;lat;lon;timestamp;P1;durP1;ratioP1;P2;durP2;ratioP2
38557;SDS011;24333;42.626;23.308;2023-12-20T00:00:17;3.08;;;1.88;;
38557;SDS011;24333;42.626;23.308;2023-12-20T00:34:53;6.90;;;3.15;;
38557;SDS011;24333;42.626;23.308;2023-12-20T00:37:18;6.05;;;2.63;;
38557;SDS011;24333;42.626;23.308;2023-12-20T00:39:43;4.90;;;2.28;;
38557;SDS011;24333;42.626;23.308;2023-12-20T00:47:19;1.27;;;0.70;;
38557;SDS011;24333;42.626;23.308;2023-12-20T00:49:44;2.13;;;1.02;;
38557;SDS011;24333;42.626;23.308;2023-12-20T00:52:10;1.42;;;1.08;;
38557;SDS011;24333;42.626;23.308;2023-12-20T00:54:35;1.08;;;0.70;;
38557;SDS011;24333;42.626;23.308;2023-12-20T00:57:01;1.27;;;0.85;;
38557;SDS011;24333;42.626;23.308;2023-12-20T00:59:26;1.58;;;0.77;;
38557;SDS011;24333;42.626;23.308;2023-12-20T01:01:52;1.55;;;0.77;;
38557;SDS011;24333;42.626;23.308;2023-12-20T01:04:17;3.65;;;0.98;;
38557;SDS011;24333;42.626;23.308;2023-12-20T01:06:42;1.98;;;1.10;;
38557;SDS011;24333;42.626;23.308;2023-12-20T01:09:08;4.80;;;1.15;;
38557;SDS011;24333;42.626;23.308;2023-12-20T01:11:33;7.18;;;1.80;;
38557;SDS011;24333;42.626;23.308;2023-12-20T01:13:58;3.88;;;1.50;;
38557;SDS011;24333;42.626;23.308;2023-12-20T01:18:49;3.15;;;1.23;;
38557;SDS011;24333;42.626;23.308;2023-12-20T01:21:15;4.68;;;1.60;;
38557;SDS011;24333;42.626;23.308;2023-12-20T01:23:40;3.95;;;1.85;;
38557;SDS011;24333;42.626;23.308;2023-12-20T01:26:06;3.42;;;1.55;;
38557;SDS011;24333;42.626;23.308;2023-12-20T01:28:31;3.30;;;1.38;;
38557;SDS011;24333;42.626;23.308;2023-12-20T01:30:57;2.58;;;1.00;;
38557;SDS011;24333;42.626;23.308;2023-12-20T01:33:22;0.93;;;0.50;;
38557;SDS011;24333;42.626;23.308;2023-12-20T01:35:47;1.40;;;0.77;;
38557;SDS011;24333;42.626;23.308;2023-12-20T01:38:13;4.35;;;0.68;;
38557;SDS011;24333;42.626;23.308;2023-12-20T01:40:38;3.45;;;1.10;;
38557;SDS011;24333;42.626;23.308;2023-12-20T01:43:07;2.15;;;0.70;;
38557;SDS011;24333;42.626;23.308;2023-12-20T01:45:33;2.80;;;0.90;;
38557;SDS011;24333;42.626;23.308;2023-12-20T01:47:58;2.22;;;1.13;;
38557;SDS011;24333;42.626;23.308;2023-12-20T01:50:25;4.78;;;1.50;;
38557;SDS011;24333;42.626;23.308;2023-12-20T01:52:50;5.53;;;1.50;;
38557;SDS011;24333;42.626;23.308;2023-12-20T01:55:20;3.83;;;1.45;;
38557;SDS011;24333;42.626;23.308;2023-12-20T01:57:46;5.22;;;1.80;;
38557;SDS011;24333;42.626;23.308;2023-12-20T02:00:12;2.50;;;1.10;;
38557;SDS011;24333;42.626;23.308;2023-12-20T02:02:41;4.15;;;1.13;;
38557;SDS011;24333;42.626;23.308;2023-12-20T02:05:07;3.75;;;1.08;;
38557;SDS011;24333;42.626;23.308;2023-12-20T02:25:38;2.08;;;0.75;;
38557;SDS011;24333;42.626;23.308;2023-12-20T03:21:29;0.82;;;0.45;;
38557;SDS011;24333;42.626;23.308;2023-12-20T03:23:54;0.65;;;0.40;;
38557;SDS011;24333;42.626;23.308;2023-12-20T03:26:20;0.55;;;0.47;;
38557;SDS011;24333;42.626;23.308;2023-12-20T03:28:45;1.30;;;0.80;;
38557;SDS011;24333;42.626;23.308;2023-12-20T03:31:10;1.85;;;1.15;;
38557;SDS011;24333;42.626;23.308;2023-12-20T03:38:46;2.35;;;1.40;;
38557;SDS011;24333;42.626;23.308;2023-12-20T04:12:12;4.57;;;1.63;;
38557;SDS011;24333;42.626;23.308;2023-12-20T04:14:37;1.77;;;1.38;;
38557;SDS011;24333;42.626;23.308;2023-12-20T04:17:03;2.92;;;1.17;;
38557;SDS011;24333;42.626;23.308;2023-12-20T04:19:28;3.85;;;1.50;;
38557;SDS011;24333;42.626;23.308;2023-12-20T04:21:53;7.28;;;1.80;;
38557;SDS011;24333;42.626;23.308;2023-12-20T05:41:34;2.58;;;1.10;;
38557;SDS011;24333;42.626;23.308;2023-12-20T05:43:59;2.40;;;1.25;;
38557;SDS011;24333;42.626;23.308;2023-12-20T05:46:25;1.95;;;1.00;;
38557;SDS011;24333;42.626;23.308;2023-12-20T05:48:51;4.07;;;1.27;;
38557;SDS011;24333;42.626;23.308;2023-12-20T05:51:17;1.95;;;1.10;;
38557;SDS011;24333;42.626;23.308;2023-12-20T05:53:42;3.53;;;1.30;;
38557;SDS011;24333;42.626;23.308;2023-12-20T05:56:09;5.20;;;1.40;;
38557;SDS011;24333;42.626;23.308;2023-12-20T05:58:34;9.32;;;4.55;;
38557;SDS011;24333;42.626;23.308;2023-12-20T06:00:59;8.77;;;3.22;;
38557;SDS011;24333;42.626;23.308;2023-12-20T06:03:25;10.30;;;3.70;;
38557;SDS011;24333;42.626;23.308;2023-12-20T06:05:50;15.43;;;4.35;;
38557;SDS011;24333;42.626;23.308;2023-12-20T06:08:16;19.75;;;7.68;;
38557;SDS011;24333;42.626;23.308;2023-12-20T06:52:52;10.18;;;3.97;;
38557;SDS011;24333;42.626;23.308;2023-12-20T06:55:17;16.58;;;7.78;;
38557;SDS011;24333;42.626;23.308;2023-12-20T06:57:43;14.95;;;6.03;;
38557;SDS011;24333;42.626;23.308;2023-12-20T07:00:09;15.27;;;6.63;;
38557;SDS011;24333;42.626;23.308;2023-12-20T07:02:36;21.02;;;8.32;;
38557;SDS011;24333;42.626;23.308;2023-12-20T07:05:01;30.27;;;11.93;;
38557;SDS011;24333;42.626;23.308;2023-12-20T07:07:26;29.00;;;12.07;;
38557;SDS011;24333;42.626;23.308;2023-12-20T07:09:52;39.85;;;15.20;;
38557;SDS011;24333;42.626;23.308;2023-12-20T08:38:35;116.25;;;40.60;;
38557;SDS011;24333;42.626;23.308;2023-12-20T08:41:01;106.63;;;40.47;;
38557;SDS011;24333;42.626;23.308;2023-12-20T08:43:27;117.75;;;42.85;;
38557;SDS011;24333;42.626;23.308;2023-12-20T08:45:53;108.32;;;43.53;;
38557;SDS011;24333;42.626;23.308;2023-12-20T08:48:18;113.82;;;44.17;;
38557;SDS011;24333;42.626;23.308;2023-12-20T08:50:43;111.88;;;42.33;;
38557;SDS011;24333;42.626;23.308;2023-12-20T08:53:09;150.77;;;60.83;;
38557;SDS011;24333;42.626;23.308;2023-12-20T08:55:34;183.60;;;71.40;;
38557;SDS011;24333;42.626;23.308;2023-12-20T08:57:59;166.30;;;65.10;;
38557;SDS011;24333;42.626;23.308;2023-12-20T09:00:25;203.07;;;77.55;;
38557;SDS011;24333;42.626;23.308;2023-12-20T09:02:52;181.30;;;68.20;;
38557;SDS011;24333;42.626;23.308;2023-12-20T09:05:18;180.57;;;66.85;;
38557;SDS011;24333;42.626;23.308;2023-12-20T09:07:43;161.57;;;64.32;;
38557;SDS011;24333;42.626;23.308;2023-12-20T09:10:09;181.35;;;70.20;;
38557;SDS011;24333;42.626;23.308;2023-12-20T09:12:34;184.55;;;71.15;;
38557;SDS011;24333;42.626;23.308;2023-12-20T09:15:00;179.70;;;71.53;;
38557;SDS011;24333;42.626;23.308;2023-12-20T09:17:27;197.00;;;76.15;;
38557;SDS011;24333;42.626;23.308;2023-12-20T09:19:53;183.52;;;75.88;;
38557;SDS011;24333;42.626;23.308;2023-12-20T09:22:19;197.63;;;75.88;;
38557;SDS011;24333;42.626;23.308;2023-12-20T09:24:44;137.80;;;58.28;;
38557;SDS011;24333;42.626;23.308;2023-12-20T09:27:10;175.30;;;67.75;;
38557;SDS011;24333;42.626;23.308;2023-12-20T09:29:35;176.60;;;64.43;;
38557;SDS011;24333;42.626;23.308;2023-12-20T09:32:00;90.07;;;35.85;;
38557;SDS011;24333;42.626;23.308;2023-12-20T09:34:26;108.75;;;44.00;;
38557;SDS011;24333;42.626;23.308;2023-12-20T09:36:52;103.72;;;41.83;;
38557;SDS011;24333;42.626;23.308;2023-12-20T09:39:18;116.13;;;44.60;;
38557;SDS011;24333;42.626;23.308;2023-12-20T09:42:07;163.43;;;64.72;;
38557;SDS011;24333;42.626;23.308;2023-12-20T09:44:32;182.43;;;72.32;;
38557;SDS011;24333;42.626;23.308;2023-12-20T09:47:06;213.20;;;79.97;;
38557;SDS011;24333;42.626;23.308;2023-12-20T09:49:32;188.63;;;75.22;;
38557;SDS011;24333;42.626;23.308;2023-12-20T09:51:57;215.13;;;100.95;;
38557;SDS011;24333;42.626;23.308;2023-12-20T09:54:24;186.63;;;73.97;;
38557;SDS011;24333;42.626;23.308;2023-12-20T09:56:50;169.25;;;68.15;;
38557;SDS011;24333;42.626;23.308;2023-12-20T09:59:15;165.63;;;67.32;;
38557;SDS011;24333;42.626;23.308;2023-12-20T10:01:41;162.18;;;67.90;;
38557;SDS011;24333;42.626;23.308;2023-12-20T10:04:07;146.63;;;59.17;;
38557;SDS011;24333;42.626;23.308;2023-12-20T10:06:37;137.63;;;55.92;;
38557;SDS011;24333;42.626;23.308;2023-12-20T10:09:02;163.93;;;59.35;;
38557;SDS011;24333;42.626;23.308;2023-12-20T10:11:27;173.40;;;67.05;;
38557;SDS011;24333;42.626;23.308;2023-12-20T10:13:58;162.02;;;65.38;;
38557;SDS011;24333;42.626;23.308;2023-12-20T10:16:24;157.57;;;66.25;;
38557;SDS011;24333;42.626;23.308;2023-12-20T10:18:50;184.25;;;66.80;;
38557;SDS011;24333;42.626;23.308;2023-12-20T10:21:15;159.70;;;63.90;;
38557;SDS011;24333;42.626;23.308;2023-12-20T10:23:40;165.40;;;67.83;;
38557;SDS011;24333;42.626;23.308;2023-12-20T10:26:05;163.27;;;66.35;;
38557;SDS011;24333;42.626;23.308;2023-12-20T10:28:34;166.73;;;67.40;;
38557;SDS011;24333;42.626;23.308;2023-12-20T10:30:59;166.70;;;65.57;;
38557;SDS011;24333;42.626;23.308;2023-12-20T10:33:25;150.27;;;60.17;;
38557;SDS011;24333;42.626;23.308;2023-12-20T10:35:51;154.93;;;61.20;;
38557;SDS011;24333;42.626;23.308;2023-12-20T10:38:17;155.88;;;61.50;;
38557;SDS011;24333;42.626;23.308;2023-12-20T10:40:42;149.45;;;61.47;;
38557;SDS011;24333;42.626;23.308;2023-12-20T10:43:08;163.88;;;61.80;;
38557;SDS011;24333;42.626;23.308;2023-12-20T10:45:33;157.00;;;61.40;;
38557;SDS011;24333;42.626;23.308;2023-12-20T10:47:59;162.77;;;60.33;;
38557;SDS011;24333;42.626;23.308;2023-12-20T10:50:25;160.73;;;62.42;;
38557;SDS011;24333;42.626;23.308;2023-12-20T10:52:51;174.93;;;64.05;;
38557;SDS011;24333;42.626;23.308;2023-12-20T10:55:20;172.27;;;64.30;;
38557;SDS011;24333;42.626;23.308;2023-12-20T10:57:45;168.32;;;63.17;;
38557;SDS011;24333;42.626;23.308;2023-12-20T11:00:16;128.65;;;53.22;;
38557;SDS011;24333;42.626;23.308;2023-12-20T11:02:42;145.95;;;53.50;;
38557;SDS011;24333;42.626;23.308;2023-12-20T11:07:55;125.03;;;49.00;;
38557;SDS011;24333;42.626;23.308;2023-12-20T11:10:25;132.95;;;52.42;;
38557;SDS011;24333;42.626;23.308;2023-12-20T11:12:52;136.05;;;48.58;;
38557;SDS011;24333;42.626;23.308;2023-12-20T11:15:19;126.60;;;50.60;;
38557;SDS011;24333;42.626;23.308;2023-12-20T11:17:45;129.43;;;49.97;;
38557;SDS011;24333;42.626;23.308;2023-12-20T11:20:11;124.45;;;48.03;;
38557;SDS011;24333;42.626;23.308;2023-12-20T11:22:37;137.80;;;51.45;;
38557;SDS011;24333;42.626;23.308;2023-12-20T11:25:10;148.75;;;54.22;;
38557;SDS011;24333;42.626;23.308;2023-12-20T11:27:37;141.63;;;50.00;;
38557;SDS011;24333;42.626;23.308;2023-12-20T11:30:05;132.35;;;50.42;;
38557;SDS011;24333;42.626;23.308;2023-12-20T11:32:35;137.32;;;52.38;;
38557;SDS011;24333;42.626;23.308;2023-12-20T11:37:36;115.72;;;46.45;;
38557;SDS011;24333;42.626;23.308;2023-12-20T11:40:02;148.02;;;55.45;;
38557;SDS011;24333;42.626;23.308;2023-12-20T11:42:32;144.25;;;51.97;;
38557;SDS011;24333;42.626;23.308;2023-12-20T11:44:57;138.30;;;49.75;;
38557;SDS011;24333;42.626;23.308;2023-12-20T11:47:23;127.05;;;49.35;;
38557;SDS011;24333;42.626;23.308;2023-12-20T11:49:48;141.20;;;49.30;;
38557;SDS011;24333;42.626;23.308;2023-12-20T11:52:14;130.73;;;49.30;;
38557;SDS011;24333;42.626;23.308;2023-12-20T11:54:39;131.85;;;48.95;;
38557;SDS011;24333;42.626;23.308;2023-12-20T11:57:04;132.48;;;49.95;;
38557;SDS011;24333;42.626;23.308;2023-12-20T11:59:30;132.80;;;52.55;;
38557;SDS011;24333;42.626;23.308;2023-12-20T12:01:56;121.18;;;48.45;;
38557;SDS011;24333;42.626;23.308;2023-12-20T12:04:25;125.20;;;47.08;;
38557;SDS011;24333;42.626;23.308;2023-12-20T12:06:50;134.10;;;50.70;;
38557;SDS011;24333;42.626;23.308;2023-12-20T12:09:16;131.10;;;49.23;;
38557;SDS011;24333;42.626;23.308;2023-12-20T12:11:41;144.20;;;53.00;;
38557;SDS011;24333;42.626;23.308;2023-12-20T12:14:07;135.52;;;50.75;;
38557;SDS011;24333;42.626;23.308;2023-12-20T12:16:32;111.20;;;45.20;;
38557;SDS011;24333;42.626;23.308;2023-12-20T12:18:58;133.52;;;48.60;;
38557;SDS011;24333;42.626;23.308;2023-12-20T12:21:24;120.00;;;48.92;;
38557;SDS011;24333;42.626;23.308;2023-12-20T12:23:50;134.50;;;50.05;;
38557;SDS011;24333;42.626;23.308;2023-12-20T12:26:15;128.80;;;47.85;;
38557;SDS011;24333;42.626;23.308;2023-12-20T12:31:08;130.50;;;46.65;;
38557;SDS011;24333;42.626;23.308;2023-12-20T12:33:34;125.88;;;48.53;;
38557;SDS011;24333;42.626;23.308;2023-12-20T12:36:02;113.22;;;44.13;;
38557;SDS011;24333;42.626;23.308;2023-12-20T12:38:29;110.18;;;43.13;;
38557;SDS011;24333;42.626;23.308;2023-12-20T12:40:55;112.30;;;42.35;;
38557;SDS011;24333;42.626;23.308;2023-12-20T12:43:21;106.20;;;43.22;;
38557;SDS011;24333;42.626;23.308;2023-12-20T12:45:47;98.45;;;39.75;;
38557;SDS011;24333;42.626;23.308;2023-12-20T12:48:13;91.68;;;36.10;;
38557;SDS011;24333;42.626;23.308;2023-12-20T13:09:12;80.10;;;31.02;;
38557;SDS011;24333;42.626;23.308;2023-12-20T13:11:37;67.47;;;25.38;;
38557;SDS011;24333;42.626;23.308;2023-12-20T13:14:03;64.45;;;24.75;;
38557;SDS011;24333;42.626;23.308;2023-12-20T13:16:28;64.45;;;23.85;;
38557;SDS011;24333;42.626;23.308;2023-12-20T13:18:54;54.20;;;21.40;;
38557;SDS011;24333;42.626;23.308;2023-12-20T13:21:19;45.50;;;19.67;;
38557;SDS011;24333;42.626;23.308;2023-12-20T13:23:44;68.18;;;17.05;;
38557;SDS011;24333;42.626;23.308;2023-12-20T13:26:10;41.67;;;15.80;;
38557;SDS011;24333;42.626;23.308;2023-12-20T13:28:35;34.83;;;13.55;;
38557;SDS011;24333;42.626;23.308;2023-12-20T13:31:00;89.05;;;31.90;;
38557;SDS011;24333;42.626;23.308;2023-12-20T13:33:25;100.13;;;32.92;;
38557;SDS011;24333;42.626;23.308;2023-12-20T13:35:51;104.45;;;38.47;;
38557;SDS011;24333;42.626;23.308;2023-12-20T13:38:16;112.13;;;42.90;;
38557;SDS011;24333;42.626;23.308;2023-12-20T13:40:42;110.95;;;40.30;;
38557;SDS011;24333;42.626;23.308;2023-12-20T13:43:07;99.57;;;35.90;;
38557;SDS011;24333;42.626;23.308;2023-12-20T13:45:32;65.53;;;24.80;;
38557;SDS011;24333;42.626;23.308;2023-12-20T13:47:58;38.63;;;14.30;;
38557;SDS011;24333;42.626;23.308;2023-12-20T13:50:23;28.75;;;11.07;;
38557;SDS011;24333;42.626;23.308;2023-12-20T13:52:49;66.72;;;17.58;;
38557;SDS011;24333;42.626;23.308;2023-12-20T13:55:14;47.15;;;12.40;;
38557;SDS011;24333;42.626;23.308;2023-12-20T13:57:39;39.70;;;9.63;;
38557;SDS011;24333;42.626;23.308;2023-12-20T14:00:06;88.72;;;19.13;;
38557;SDS011;24333;42.626;23.308;2023-12-20T14:02:38;21.42;;;5.72;;
38557;SDS011;24333;42.626;23.308;2023-12-20T14:05:03;14.45;;;4.32;;
38557;SDS011;24333;42.626;23.308;2023-12-20T14:07:28;47.20;;;15.23;;
38557;SDS011;24333;42.626;23.308;2023-12-20T14:09:54;36.88;;;13.70;;
38557;SDS011;24333;42.626;23.308;2023-12-20T14:12:19;41.95;;;14.32;;
38557;SDS011;24333;42.626;23.308;2023-12-20T14:14:45;10.30;;;3.97;;
38557;SDS011;24333;42.626;23.308;2023-12-20T14:17:12;10.23;;;3.90;;
38557;SDS011;24333;42.626;23.308;2023-12-20T14:19:38;14.32;;;6.18;;
38557;SDS011;24333;42.626;23.308;2023-12-20T14:22:04;9.15;;;4.57;;
38557;SDS011;24333;42.626;23.308;2023-12-20T14:24:29;6.20;;;3.08;;
38557;SDS011;24333;42.626;23.308;2023-12-20T14:26:57;7.05;;;2.83;;
38557;SDS011;24333;42.626;23.308;2023-12-20T14:29:23;5.50;;;2.30;;
38557;SDS011;24333;42.626;23.308;2023-12-20T14:31:48;10.57;;;5.03;;
38557;SDS011;24333;42.626;23.308;2023-12-20T14:34:14;8.45;;;3.80;;
38557;SDS011;24333;42.626;23.308;2023-12-20T14:36:40;5.78;;;2.85;;
38557;SDS011;24333;42.626;23.308;2023-12-20T14:42:08;8.02;;;4.75;;
38557;SDS011;24333;42.626;23.308;2023-12-20T14:44:42;106.72;;;32.75;;
38557;SDS011;24333;42.626;23.308;2023-12-20T14:47:12;51.88;;;14.82;;
38557;SDS011;24333;42.626;23.308;2023-12-20T14:49:47;41.65;;;14.70;;
38557;SDS011;24333;42.626;23.308;2023-12-20T14:55:03;17.85;;;6.28;;
38557;SDS011;24333;42.626;23.308;2023-12-20T14:57:29;12.65;;;4.60;;
38557;SDS011;24333;42.626;23.308;2023-12-20T14:59:55;19.17;;;11.07;;
38557;SDS011;24333;42.626;23.308;2023-12-20T15:02:20;13.90;;;6.97;;
38557;SDS011;24333;42.626;23.308;2023-12-20T15:04:45;19.48;;;7.95;;
38557;SDS011;24333;42.626;23.308;2023-12-20T15:07:11;11.05;;;4.30;;
38557;SDS011;24333;42.626;23.308;2023-12-20T15:09:36;22.67;;;9.18;;
38557;SDS011;24333;42.626;23.308;2023-12-20T15:12:02;16.52;;;6.28;;
38557;SDS011;24333;42.626;23.308;2023-12-20T15:14:27;8.15;;;3.65;;
38557;SDS011;24333;42.626;23.308;2023-12-20T15:16:53;20.63;;;9.65;;
38557;SDS011;24333;42.626;23.308;2023-12-20T15:19:20;8.40;;;4.13;;
38557;SDS011;24333;42.626;23.308;2023-12-20T15:21:45;10.38;;;3.97;;
38557;SDS011;24333;42.626;23.308;2023-12-20T15:24:11;15.38;;;6.47;;
38557;SDS011;24333;42.626;23.308;2023-12-20T15:26:45;9.50;;;4.07;;
38557;SDS011;24333;42.626;23.308;2023-12-20T15:29:10;9.38;;;3.33;;
38557;SDS011;24333;42.626;23.308;2023-12-20T15:31:41;12.68;;;3.10;;
38557;SDS011;24333;42.626;23.308;2023-12-20T15:34:07;8.25;;;3.85;;
38557;SDS011;24333;42.626;23.308;2023-12-20T15:36:32;11.68;;;5.65;;
38557;SDS011;24333;42.626;23.308;2023-12-20T15:38:58;49.58;;;15.50;;
38557;SDS011;24333;42.626;23.308;2023-12-20T15:41:23;16.98;;;6.72;;
38557;SDS011;24333;42.626;23.308;2023-12-20T15:43:51;10.60;;;4.07;;
38557;SDS011;24333;42.626;23.308;2023-12-20T15:46:17;10.85;;;4.05;;
38557;SDS011;24333;42.626;23.308;2023-12-20T15:48:42;12.48;;;5.57;;
38557;SDS011;24333;42.626;23.308;2023-12-20T15:51:10;17.88;;;8.15;;
38557;SDS011;24333;42.626;23.308;2023-12-20T15:53:36;10.10;;;4.10;;
38557;SDS011;24333;42.626;23.308;2023-12-20T15:56:02;11.30;;;4.65;;
38557;SDS011;24333;42.626;23.308;2023-12-20T15:58:28;12.02;;;6.07;;
38557;SDS011;24333;42.626;23.308;2023-12-20T16:00:54;9.90;;;4.65;;
38557;SDS011;24333;42.626;23.308;2023-12-20T16:03:28;25.10;;;11.35;;
38557;SDS011;24333;42.626;23.308;2023-12-20T16:05:55;12.07;;;5.18;;
38557;SDS011;24333;42.626;23.308;2023-12-20T16:08:20;11.43;;;5.20;;
38557;SDS011;24333;42.626;23.308;2023-12-20T16:10:45;17.05;;;8.43;;
38557;SDS011;24333;42.626;23.308;2023-12-20T16:13:11;19.48;;;9.73;;
38557;SDS011;24333;42.626;23.308;2023-12-20T16:15:36;10.77;;;4.47;;
38557;SDS011;24333;42.626;23.308;2023-12-20T16:18:01;11.88;;;5.93;;
38557;SDS011;24333;42.626;23.308;2023-12-20T16:20:28;11.98;;;5.30;;
38557;SDS011;24333;42.626;23.308;2023-12-20T16:22:53;16.55;;;4.55;;
38557;SDS011;24333;42.626;23.308;2023-12-20T16:25:18;11.57;;;5.50;;
38557;SDS011;24333;42.626;23.308;2023-12-20T16:27:43;9.80;;;4.47;;
38557;SDS011;24333;42.626;23.308;2023-12-20T16:30:09;10.93;;;4.93;;
38557;SDS011;24333;42.626;23.308;2023-12-20T16:32:34;11.88;;;5.53;;
38557;SDS011;24333;42.626;23.308;2023-12-20T16:35:00;10.98;;;4.13;;
38557;SDS011;24333;42.626;23.308;2023-12-20T16:37:26;13.15;;;5.05;;
38557;SDS011;24333;42.626;23.308;2023-12-20T16:39:51;11.95;;;5.65;;
38557;SDS011;24333;42.626;23.308;2023-12-20T16:42:16;9.57;;;4.25;;
38557;SDS011;24333;42.626;23.308;2023-12-20T16:44:42;13.02;;;4.72;;
38557;SDS011;24333;42.626;23.308;2023-12-20T16:47:07;16.52;;;7.40;;
38557;SDS011;24333;42.626;23.308;2023-12-20T16:49:32;13.53;;;6.13;;
38557;SDS011;24333;42.626;23.308;2023-12-20T16:51:57;21.98;;;9.82;;
38557;SDS011;24333;42.626;23.308;2023-12-20T16:54:23;20.15;;;8.20;;
38557;SDS011;24333;42.626;23.308;2023-12-20T16:56:48;63.43;;;20.23;;
38557;SDS011;24333;42.626;23.308;2023-12-20T16:59:13;55.30;;;18.63;;
38557;SDS011;24333;42.626;23.308;2023-12-20T17:01:38;28.33;;;9.35;;
38557;SDS011;24333;42.626;23.308;2023-12-20T17:04:07;38.40;;;15.38;;
38557;SDS011;24333;42.626;23.308;2023-12-20T17:06:33;10.57;;;4.88;;
38557;SDS011;24333;42.626;23.308;2023-12-20T17:08:58;18.63;;;7.95;;
38557;SDS011;24333;42.626;23.308;2023-12-20T17:11:23;31.03;;;13.73;;
38557;SDS011;24333;42.626;23.308;2023-12-20T17:13:48;9.57;;;4.35;;
38557;SDS011;24333;42.626;23.308;2023-12-20T17:16:14;19.67;;;9.88;;
38557;SDS011;24333;42.626;23.308;2023-12-20T17:18:39;17.52;;;7.38;;
38557;SDS011;24333;42.626;23.308;2023-12-20T17:21:05;9.30;;;3.58;;
38557;SDS011;24333;42.626;23.308;2023-12-20T17:23:30;6.57;;;3.33;;
38557;SDS011;24333;42.626;23.308;2023-12-20T17:25:55;25.90;;;16.85;;
38557;SDS011;24333;42.626;23.308;2023-12-20T17:28:20;12.93;;;5.93;;
38557;SDS011;24333;42.626;23.308;2023-12-20T17:30:46;11.37;;;5.37;;
38557;SDS011;24333;42.626;23.308;2023-12-20T17:33:11;12.38;;;5.00;;
38557;SDS011;24333;42.626;23.308;2023-12-20T17:35:36;15.03;;;6.80;;
38557;SDS011;24333;42.626;23.308;2023-12-20T17:38:01;17.20;;;6.37;;
38557;SDS011;24333;42.626;23.308;2023-12-20T17:40:26;39.83;;;13.53;;
38557;SDS011;24333;42.626;23.308;2023-12-20T17:42:52;10.17;;;4.30;;
38557;SDS011;24333;42.626;23.308;2023-12-20T17:45:18;8.02;;;3.60;;
38557;SDS011;24333;42.626;23.308;2023-12-20T17:47:43;8.80;;;3.30;;
38557;SDS011;24333;42.626;23.308;2023-12-20T17:50:09;7.75;;;3.47;;
38557;SDS011;24333;42.626;23.308;2023-12-20T17:52:34;12.68;;;5.47;;
38557;SDS011;24333;42.626;23.308;2023-12-20T17:55:00;12.55;;;5.45;;
38557;SDS011;24333;42.626;23.308;2023-12-20T17:57:26;14.68;;;5.53;;
38557;SDS011;24333;42.626;23.308;2023-12-20T17:59:51;7.63;;;3.42;;
38557;SDS011;24333;42.626;23.308;2023-12-20T18:02:16;16.90;;;4.97;;
38557;SDS011;24333;42.626;23.308;2023-12-20T18:04:42;9.88;;;4.03;;
38557;SDS011;24333;42.626;23.308;2023-12-20T18:07:08;8.23;;;3.53;;
38557;SDS011;24333;42.626;23.308;2023-12-20T18:09:33;19.77;;;7.10;;
38557;SDS011;24333;42.626;23.308;2023-12-20T18:11:59;78.40;;;27.98;;
38557;SDS011;24333;42.626;23.308;2023-12-20T18:14:24;96.82;;;29.90;;
38557;SDS011;24333;42.626;23.308;2023-12-20T18:16:50;80.72;;;24.80;;
38557;SDS011;24333;42.626;23.308;2023-12-20T18:19:15;73.75;;;26.45;;
38557;SDS011;24333;42.626;23.308;2023-12-20T18:21:42;68.45;;;24.45;;
38557;SDS011;24333;42.626;23.308;2023-12-20T18:24:07;48.78;;;17.33;;
38557;SDS011;24333;42.626;23.308;2023-12-20T18:26:32;31.92;;;13.90;;
38557;SDS011;24333;42.626;23.308;2023-12-20T18:29:00;83.55;;;25.38;;
38557;SDS011;24333;42.626;23.308;2023-12-20T18:31:26;48.95;;;16.63;;
38557;SDS011;24333;42.626;23.308;2023-12-20T18:33:51;72.53;;;24.02;;
38557;SDS011;24333;42.626;23.308;2023-12-20T18:36:17;23.63;;;8.97;;
38557;SDS011;24333;42.626;23.308;2023-12-20T18:38:42;54.00;;;17.42;;
38557;SDS011;24333;42.626;23.308;2023-12-20T18:41:07;24.15;;;9.07;;
38557;SDS011;24333;42.626;23.308;2023-12-20T18:43:33;19.08;;;7.05;;
38557;SDS011;24333;42.626;23.308;2023-12-20T18:45:58;22.95;;;11.68;;
38557;SDS011;24333;42.626;23.308;2023-12-20T18:48:24;23.85;;;9.45;;
38557;SDS011;24333;42.626;23.308;2023-12-20T18:50:49;20.93;;;8.17;;
38557;SDS011;24333;42.626;23.308;2023-12-20T18:53:14;27.63;;;8.55;;
38557;SDS011;24333;42.626;23.308;2023-12-20T18:55:41;33.17;;;11.55;;
38557;SDS011;24333;42.626;23.308;2023-12-20T18:58:06;43.00;;;12.48;;
38557;SDS011;24333;42.626;23.308;2023-12-20T19:00:32;37.65;;;13.63;;
38557;SDS011;24333;42.626;23.308;2023-12-20T19:02:57;28.38;;;11.00;;
38557;SDS011;24333;42.626;23.308;2023-12-20T19:05:22;28.95;;;11.10;;
38557;SDS011;24333;42.626;23.308;2023-12-20T19:07:47;29.08;;;11.65;;
38557;SDS011;24333;42.626;23.308;2023-12-20T19:10:13;24.27;;;9.20;;
38557;SDS011;24333;42.626;23.308;2023-12-20T19:12:39;21.77;;;7.70;;
38557;SDS011;24333;42.626;23.308;2023-12-20T19:15:04;21.92;;;7.43;;
38557;SDS011;24333;42.626;23.308;2023-12-20T19:17:29;30.60;;;11.95;;
38557;SDS011;24333;42.626;23.308;2023-12-20T19:19:55;84.25;;;33.90;;
38557;SDS011;24333;42.626;23.308;2023-12-20T19:22:20;45.72;;;19.27;;
38557;SDS011;24333;42.626;23.308;2023-12-20T19:24:45;21.27;;;9.07;;
38557;SDS011;24333;42.626;23.308;2023-12-20T19:27:10;24.02;;;8.95;;
38557;SDS011;24333;42.626;23.308;2023-12-20T19:29:36;15.98;;;7.38;;
38557;SDS011;24333;42.626;23.308;2023-12-20T19:32:01;20.77;;;7.85;;
38557;SDS011;24333;42.626;23.308;2023-12-20T19:34:26;17.23;;;6.82;;
38557;SDS011;24333;42.626;23.308;2023-12-20T19:36:51;17.23;;;6.30;;
38557;SDS011;24333;42.626;23.308;2023-12-20T19:39:17;19.10;;;6.40;;
38557;SDS011;24333;42.626;23.308;2023-12-20T19:41:42;20.40;;;6.63;;
38557;SDS011;24333;42.626;23.308;2023-12-20T19:44:07;18.27;;;6.17;;
38557;SDS011;24333;42.626;23.308;2023-12-20T20:18:22;53.40;;;18.27;;
38557;SDS011;24333;42.626;23.308;2023-12-20T20:20:47;36.20;;;12.43;;
38557;SDS011;24333;42.626;23.308;2023-12-20T20:23:13;37.38;;;12.63;;
38557;SDS011;24333;42.626;23.308;2023-12-20T20:25:38;38.30;;;12.63;;
38557;SDS011;24333;42.626;23.308;2023-12-20T20:28:03;27.60;;;10.80;;
38557;SDS011;24333;42.626;23.308;2023-12-20T20:30:29;18.60;;;7.95;;
38557;SDS011;24333;42.626;23.308;2023-12-20T20:32:54;23.88;;;7.93;;
38557;SDS011;24333;42.626;23.308;2023-12-20T20:35:19;12.23;;;5.60;;
38557;SDS011;24333;42.626;23.308;2023-12-20T20:37:45;13.07;;;5.32;;
38557;SDS011;24333;42.626;23.308;2023-12-20T20:40:11;15.52;;;5.32;;
38557;SDS011;24333;42.626;23.308;2023-12-20T20:42:38;29.73;;;10.95;;
38557;SDS011;24333;42.626;23.308;2023-12-20T20:45:04;23.33;;;8.57;;
38557;SDS011;24333;42.626;23.308;2023-12-20T20:47:29;18.90;;;7.78;;
38557;SDS011;24333;42.626;23.308;2023-12-20T20:49:54;19.88;;;7.55;;
38557;SDS011;24333;42.626;23.308;2023-12-20T20:52:20;19.98;;;7.82;;
38557;SDS011;24333;42.626;23.308;2023-12-20T20:54:45;21.30;;;8.27;;
38557;SDS011;24333;42.626;23.308;2023-12-20T20:57:10;16.52;;;7.13;;
38557;SDS011;24333;42.626;23.308;2023-12-20T20:59:35;20.55;;;7.65;;
38557;SDS011;24333;42.626;23.308;2023-12-20T21:02:01;15.05;;;6.30;;